Time;durP1;ratioP1;P1;durP2;ratioP2;P2;SDS_P1;SDS_P2;PMS_P1;PMS_P2;Temp;Humidity;BMP_temperature;BMP_pressure;BME280_temperature;BME280_humidity;BME280_pressure;Samples;Min_cycle;Max_cycle;Signal;HPM_P1;HPM_P2
2020/12/24 00:01:49;;;;;;;1.52;0.20;;;8.30;99.90;;;;;;5069923;28;20035;-83
2020/12/24 00:04:15;;;;;;;1.98;0.30;;;8.30;99.90;;;;;;5053102;28;20037;-84
2020/12/24 00:06:40;;;;;;;1.42;0.38;;;8.30;99.90;;;;;;5037670;28;20049;-83
2020/12/24 00:09:06;;;;;;;1.77;0.30;;;8.30;99.90;;;;;;5033338;28;20036;-85
2020/12/24 00:11:31;;;;;;;1.40;0.25;;;8.30;99.90;;;;;;5033269;28;20113;-84
2020/12/24 00:13:57;;;;;;;1.38;0.30;;;8.30;99.90;;;;;;5033387;28;20114;-84
2020/12/24 00:16:23;;;;;;;1.13;0.38;;;8.30;99.90;;;;;;5033153;28;20025;-85
2020/12/24 00:18:48;;;;;;;1.75;0.20;;;8.30;99.90;;;;;;5033275;28;20039;-85
2020/12/24 00:21:14;;;;;;;1.05;0.20;;;8.30;99.90;;;;;;5049824;28;20096;-85
2020/12/24 00:23:39;;;;;;;1.27;0.20;;;8.30;99.90;;;;;;5032899;28;20045;-85
2020/12/24 00:26:05;;;;;;;0.80;0.20;;;8.20;99.90;;;;;;5033275;28;20074;-85
2020/12/24 00:28:32;;;;;;;1.25;0.30;;;8.20;99.90;;;;;;5032990;28;20036;-85
2020/12/24 00:30:58;;;;;;;2.63;0.20;;;8.20;99.90;;;;;;5049700;28;20090;-85
2020/12/24 00:33:24;;;;;;;2.35;0.30;;;8.20;99.90;;;;;;5032916;28;20021;-85
2020/12/24 00:35:50;;;;;;;1.48;0.40;;;8.20;99.90;;;;;;5032746;28;20025;-85
2020/12/24 00:38:16;;;;;;;1.63;0.40;;;8.20;99.90;;;;;;5032296;28;20139;-85
2020/12/24 00:40:41;;;;;;;3.92;0.30;;;8.20;99.90;;;;;;5032610;28;20044;-86
2020/12/24 00:43:07;;;;;;;0.95;0.30;;;8.20;99.90;;;;;;5032523;28;20067;-85
2020/12/24 00:45:35;;;;;;;1.45;0.40;;;8.10;99.90;;;;;;5049449;28;20028;-85
2020/12/24 00:48:01;;;;;;;1.80;0.30;;;8.20;99.90;;;;;;5049239;28;20058;-85
2020/12/24 00:50:27;;;;;;;1.63;0.30;;;8.20;99.90;;;;;;5049029;28;20036;-85
2020/12/24 00:52:52;;;;;;;1.77;0.30;;;8.20;99.90;;;;;;5032578;28;20025;-85
2020/12/24 00:55:18;;;;;;;3.30;0.57;;;8.20;99.90;;;;;;5032585;28;20036;-86
2020/12/24 00:57:44;;;;;;;2.50;0.28;;;8.20;99.90;;;;;;5032416;28;20092;-85
2020/12/24 01:00:10;;;;;;;4.70;0.20;;;8.30;99.90;;;;;;5049216;28;20032;-85
2020/12/24 01:02:35;;;;;;;2.22;0.22;;;8.30;99.90;;;;;;5032250;28;20047;-85
2020/12/24 01:05:04;;;;;;;6.63;0.40;;;8.40;99.90;;;;;;5040823;22;20028;-84
2020/12/24 01:07:30;;;;;;;2.75;0.20;;;8.40;99.90;;;;;;5052116;28;20040;-85
2020/12/24 01:09:55;;;;;;;2.70;0.30;;;8.40;99.90;;;;;;5051787;28;20032;-85
2020/12/24 01:12:21;;;;;;;3.90;0.30;;;8.40;99.90;;;;;;5051944;28;20084;-85
2020/12/24 01:14:46;;;;;;;3.88;0.20;;;8.40;99.90;;;;;;5051876;28;20028;-85
2020/12/24 01:17:12;;;;;;;6.50;0.20;;;8.30;99.90;;;;;;5051814;28;20032;-85
2020/12/24 01:19:38;;;;;;;4.45;0.30;;;8.40;99.90;;;;;;5052095;28;20036;-85
2020/12/24 01:22:03;;;;;;;3.20;0.40;;;8.30;99.90;;;;;;5051881;28;20025;-85
2020/12/24 01:24:29;;;;;;;5.53;0.30;;;8.40;99.90;;;;;;5051769;28;20434;-85
2020/12/24 01:26:54;;;;;;;2.58;0.20;;;8.40;99.90;;;;;;5051727;28;20088;-85
2020/12/24 01:29:20;;;;;;;2.83;0.20;;;8.40;99.90;;;;;;5051435;28;20400;-84
2020/12/24 01:31:50;;;;;;;7.45;0.30;;;8.40;99.90;;;;;;5051958;28;20035;-85
2020/12/24 01:34:18;;;;;;;6.30;0.50;;;8.30;99.90;;;;;;5051495;28;20104;-86
2020/12/24 01:36:44;;;;;;;3.85;0.30;;;8.30;99.90;;;;;;5054177;28;20036;-85
2020/12/24 01:39:10;;;;;;;5.00;0.30;;;8.30;99.90;;;;;;5083267;28;20032;-86
2020/12/24 01:41:36;;;;;;;6.57;0.40;;;8.20;99.90;;;;;;5066753;28;20028;-85
2020/12/24 01:44:02;;;;;;;1.98;0.20;;;8.20;99.90;;;;;;5068001;28;20040;-85
2020/12/24 01:46:28;;;;;;;6.15;0.40;;;8.20;99.90;;;;;;5068280;28;20052;-86
2020/12/24 01:48:53;;;;;;;5.38;0.30;;;8.30;99.90;;;;;;5051217;28;20472;-84
2020/12/24 01:51:29;;;;;;;6.47;0.50;;;8.20;99.90;;;;;;5050955;28;20021;-85
2020/12/24 01:53:58;;;;;;;4.00;0.30;;;8.20;99.90;;;;;;5051522;28;20034;-84
2020/12/24 01:56:25;;;;;;;3.03;0.25;;;8.20;99.90;;;;;;5051282;28;20032;-85
2020/12/24 01:58:52;;;;;;;5.85;0.50;;;8.20;99.90;;;;;;5051196;28;20032;-86
2020/12/24 02:01:18;;;;;;;3.20;0.20;;;8.20;99.90;;;;;;5051586;28;20032;-86
2020/12/24 02:03:44;;;;;;;4.60;0.28;;;8.10;99.90;;;;;;5051219;28;20032;-85
2020/12/24 02:06:13;;;;;;;2.65;0.20;;;8.10;99.90;;;;;;5062658;28;20079;-85
2020/12/24 02:08:39;;;;;;;3.38;0.10;;;8.10;99.90;;;;;;5071340;28;20028;-85
2020/12/24 02:11:07;;;;;;;3.83;0.25;;;8.10;99.90;;;;;;5071227;28;20396;-84
2020/12/24 02:13:33;;;;;;;1.70;0.10;;;8.10;99.90;;;;;;5088207;28;20044;-86
2020/12/24 02:15:58;;;;;;;4.00;0.20;;;8.00;99.90;;;;;;5071574;28;20032;-84
2020/12/24 02:18:25;;;;;;;3.75;0.20;;;8.10;99.90;;;;;;5088104;28;20024;-86
2020/12/24 02:20:51;;;;;;;3.88;0.20;;;8.00;99.90;;;;;;5071279;28;20032;-86
2020/12/24 02:23:16;;;;;;;5.65;0.25;;;8.00;99.90;;;;;;5070907;28;20518;-87
2020/12/24 02:25:42;;;;;;;4.05;0.30;;;8.00;99.90;;;;;;5071382;28;20196;-86
2020/12/24 02:28:11;;;;;;;6.38;0.30;;;8.10;99.90;;;;;;5071014;28;20098;-84
2020/12/24 02:30:40;;;;;;;2.70;0.20;;;8.10;99.90;;;;;;5088160;28;20043;-87
2020/12/24 02:33:06;;;;;;;8.57;0.25;;;8.10;99.90;;;;;;5105816;28;20027;-85
2020/12/24 02:35:32;;;;;;;5.82;0.30;;;8.10;99.90;;;;;;5070898;28;20464;-84
2020/12/24 02:37:57;;;;;;;9.40;0.40;;;8.10;99.90;;;;;;5087574;28;20026;-85
2020/12/24 02:40:23;;;;;;;6.47;0.77;;;8.20;99.90;;;;;;5071460;28;20028;-83
2020/12/24 02:42:49;;;;;;;4.38;0.32;;;8.10;99.90;;;;;;5071305;28;20028;-85
2020/12/24 02:45:15;;;;;;;5.75;0.30;;;8.20;99.90;;;;;;5071272;28;20036;-85
2020/12/24 02:47:41;;;;;;;4.68;0.30;;;8.20;99.90;;;;;;5071033;28;20051;-85
2020/12/24 02:50:09;;;;;;;7.45;0.30;;;8.20;99.90;;;;;;5071192;28;20617;-86
2020/12/24 02:52:35;;;;;;;5.28;0.30;;;8.20;99.90;;;;;;5070931;28;20034;-85
2020/12/24 02:55:02;;;;;;;4.45;0.30;;;8.20;99.90;;;;;;5071186;28;20431;-84
2020/12/24 02:57:28;;;;;;;2.90;0.30;;;8.10;99.90;;;;;;5070950;28;20090;-84
2020/12/24 02:59:53;;;;;;;4.88;0.30;;;8.10;99.90;;;;;;5071008;28;20032;-85
2020/12/24 03:02:19;;;;;;;3.75;0.20;;;8.10;99.90;;;;;;5073585;28;20035;-85
2020/12/24 03:04:44;;;;;;;6.25;0.28;;;8.00;99.90;;;;;;5074413;28;20624;-85
2020/12/24 03:07:10;;;;;;;3.47;0.40;;;8.00;99.90;;;;;;5074332;28;20044;-85
2020/12/24 03:09:36;;;;;;;2.55;0.20;;;8.00;99.90;;;;;;5074262;28;20027;-85
2020/12/24 03:12:02;;;;;;;3.95;0.20;;;8.00;99.90;;;;;;5074044;28;20042;-85
2020/12/24 03:14:27;;;;;;;5.93;0.20;;;7.90;99.90;;;;;;5090993;28;20035;-85
2020/12/24 03:16:53;;;;;;;5.25;0.20;;;7.90;99.90;;;;;;5074080;28;20036;-86
2020/12/24 03:19:18;;;;;;;5.40;0.68;;;7.90;99.90;;;;;;5073985;28;20036;-85
2020/12/24 03:21:44;;;;;;;2.78;0.22;;;7.90;99.90;;;;;;5074084;28;20111;-86
2020/12/24 03:24:10;;;;;;;2.83;0.52;;;7.90;99.90;;;;;;5073811;28;20044;-86
2020/12/24 03:26:35;;;;;;;4.35;0.38;;;7.80;99.90;;;;;;5090839;28;20103;-85
2020/12/24 03:29:01;;;;;;;3.55;0.22;;;7.80;99.90;;;;;;5090658;28;20062;-85
2020/12/24 03:31:27;;;;;;;3.25;0.35;;;7.80;99.90;;;;;;5073953;28;20050;-85
2020/12/24 03:33:54;;;;;;;4.25;0.30;;;7.80;99.90;;;;;;5074047;28;20039;-86
2020/12/24 03:36:20;;;;;;;7.03;0.30;;;7.80;99.90;;;;;;5073611;28;20055;-85
2020/12/24 03:38:46;;;;;;;5.30;0.40;;;7.80;99.90;;;;;;5073681;28;20057;-86
2020/12/24 03:41:12;;;;;;;2.85;0.30;;;7.80;99.90;;;;;;5073789;28;20028;-85
2020/12/24 03:43:37;;;;;;;3.15;0.20;;;7.80;99.90;;;;;;5090127;28;20036;-85
2020/12/24 03:46:03;;;;;;;4.47;0.30;;;7.80;99.90;;;;;;5073979;28;20082;-85
2020/12/24 03:48:29;;;;;;;4.40;0.30;;;7.80;99.90;;;;;;5073432;28;20024;-85
2020/12/24 03:50:55;;;;;;;2.75;0.20;;;7.80;99.90;;;;;;5073658;28;20032;-86
2020/12/24 03:53:20;;;;;;;4.05;0.57;;;7.80;99.90;;;;;;5073503;28;20095;-87
2020/12/24 03:55:46;;;;;;;5.85;0.40;;;7.80;99.90;;;;;;5073572;28;20049;-86
2020/12/24 03:58:12;;;;;;;6.38;0.30;;;7.80;99.90;;;;;;5073383;28;20476;-86
2020/12/24 04:00:39;;;;;;;3.22;0.22;;;7.70;99.90;;;;;;5073533;28;20491;-85
2020/12/24 04:03:05;;;;;;;5.63;0.20;;;7.70;99.90;;;;;;5073203;28;20072;-85
2020/12/24 04:05:31;;;;;;;2.70;0.20;;;7.70;99.90;;;;;;5069558;28;20091;-85
2020/12/24 04:07:56;;;;;;;6.90;0.47;;;7.70;99.90;;;;;;5086219;28;20075;-85
2020/12/24 04:10:22;;;;;;;7.97;0.40;;;7.80;99.90;;;;;;5069932;28;20233;-86
2020/12/24 04:12:48;;;;;;;6.57;0.70;;;7.80;99.90;;;;;;5069256;28;20228;-87
2020/12/24 04:15:13;;;;;;;9.00;1.38;;;7.70;99.90;;;;;;5069448;28;20115;-86
2020/12/24 04:17:39;;;;;;;2.88;0.30;;;7.70;99.90;;;;;;5086400;28;20089;-86
2020/12/24 04:20:05;;;;;;;7.75;0.85;;;7.70;99.90;;;;;;5069479;28;20087;-85
2020/12/24 04:22:30;;;;;;;4.03;0.65;;;7.70;99.90;;;;;;5070025;28;20029;-86
2020/12/24 04:24:56;;;;;;;5.72;0.30;;;7.70;99.90;;;;;;5069810;28;20055;-86
2020/12/24 04:27:23;;;;;;;5.82;0.50;;;7.70;99.90;;;;;;5070847;28;20101;-86
2020/12/24 04:29:49;;;;;;;3.63;0.30;;;7.70;99.90;;;;;;5069014;28;20028;-85
2020/12/24 04:32:15;;;;;;;2.80;0.38;;;7.70;99.90;;;;;;5086192;28;20032;-85
2020/12/24 04:34:40;;;;;;;6.68;0.40;;;7.80;99.90;;;;;;5085743;28;20499;-86
2020/12/24 04:37:06;;;;;;;5.85;0.80;;;7.80;99.90;;;;;;5069353;28;20035;-85
2020/12/24 04:39:32;;;;;;;8.80;0.50;;;7.80;99.90;;;;;;5085756;28;20059;-85
2020/12/24 04:41:59;;;;;;;8.45;0.50;;;7.70;99.90;;;;;;5069156;28;20048;-84
2020/12/24 04:44:28;;;;;;;8.35;0.85;;;7.70;99.90;;;;;;5068802;28;20044;-85
2020/12/24 04:46:55;;;;;;;6.88;0.60;;;7.70;99.90;;;;;;5085639;28;20052;-84
2020/12/24 04:49:24;;;;;;;8.35;0.43;;;7.70;99.90;;;;;;5068815;28;20044;-85
2020/12/24 04:51:50;;;;;;;5.50;0.40;;;7.70;99.90;;;;;;5068944;28;20444;-85
2020/12/24 04:54:17;;;;;;;3.42;0.30;;;7.70;99.90;;;;;;5085501;28;20029;-85
2020/12/24 04:56:45;;;;;;;10.55;0.50;;;7.70;99.90;;;;;;5068886;28;20032;-84
2020/12/24 04:59:11;;;;;;;8.85;0.55;;;7.70;99.90;;;;;;5068545;28;20036;-84
2020/12/24 05:01:37;;;;;;;2.05;0.30;;;7.70;99.90;;;;;;5085353;28;20078;-85
2020/12/24 05:04:23;;;;;;;0.82;0.20;;;7.20;99.90;;;;;;5068564;28;20039;-86
2020/12/24 05:06:48;;;;;;;0.60;0.20;;;6.50;99.90;;;;;;5051344;23;20052;-85
2020/12/24 05:09:15;;;;;;;0.55;0.10;;;5.90;99.90;;;;;;5052589;28;20028;-86
2020/12/24 05:11:44;;;;;;;0.20;0.10;;;5.60;99.90;;;;;;5085910;28;20068;-84
2020/12/24 05:14:23;;;;;;;0.20;0.10;;;5.40;99.90;;;;;;5085876;28;20033;-85
2020/12/24 05:16:56;;;;;;;0.25;0.10;;;5.30;99.90;;;;;;5069100;28;20039;-85
2020/12/24 05:19:23;;;;;;;0.20;0.08;;;5.20;99.90;;;;;;5085838;28;20484;-84
2020/12/24 05:21:49;;;;;;;2.05;0.10;;;5.20;99.90;;;;;;5085515;28;20028;-84
2020/12/24 05:24:22;;;;;;;0.03;0.00;;;5.10;99.90;;;;;;5065621;28;20098;-83
2020/12/24 05:26:47;;;;;;;0.20;0.00;;;4.80;99.90;;;;;;5068585;28;20452;-83
2020/12/24 05:29:13;;;;;;;0.00;0.00;;;4.90;99.90;;;;;;5062482;28;20047;-84
2020/12/24 05:31:38;;;;;;;0.00;0.00;;;4.90;99.90;;;;;;5068535;28;20488;-83
2020/12/24 05:34:05;;;;;;;0.00;0.00;;;4.90;99.90;;;;;;5068564;28;20028;-83
2020/12/24 05:36:31;;;;;;;0.10;0.00;;;4.80;99.90;;;;;;5068639;28;20123;-83
2020/12/24 05:38:56;;;;;;;0.10;0.00;;;4.70;99.90;;;;;;5068294;28;20119;-83
2020/12/24 05:41:36;;;;;;;0.00;0.00;;;4.80;99.90;;;;;;5068263;28;20029;-83
2020/12/24 05:44:10;;;;;;;0.32;0.00;;;4.60;99.90;;;;;;5068165;28;20070;-83
2020/12/24 05:46:45;;;;;;;0.00;0.00;;;4.50;99.90;;;;;;5084711;28;20038;-82
2020/12/24 05:49:12;;;;;;;0.00;0.00;;;4.50;99.90;;;;;;5068051;28;20040;-83
2020/12/24 05:51:39;;;;;;;0.00;0.00;;;4.60;99.90;;;;;;5082880;28;20035;-83
2020/12/24 05:54:06;;;;;;;0.30;0.00;;;4.50;99.90;;;;;;5067701;28;20032;-82
2020/12/24 05:56:35;;;;;;;0.00;0.00;;;4.50;99.90;;;;;;5073052;28;20017;-83
2020/12/24 05:59:04;;;;;;;0.00;0.00;;;4.50;99.90;;;;;;5063146;28;20039;-83
2020/12/24 06:01:39;;;;;;;0.10;0.00;;;4.40;99.90;;;;;;5058184;28;20075;-82
2020/12/24 06:04:43;;;;;;;0.03;0.00;;;4.30;99.90;;;;;;5061644;28;20515;-83
2020/12/24 06:07:12;;;;;;;0.08;0.00;;;4.30;99.90;;;;;;5015375;28;20038;-83
2020/12/24 06:09:39;;;;;;;0.30;0.00;;;4.30;99.90;;;;;;5023119;28;20096;-83
2020/12/24 06:12:27;;;;;;;0.20;0.00;;;4.30;99.90;;;;;;5003454;28;20070;-83
2020/12/24 06:14:58;;;;;;;0.52;0.03;;;4.20;99.90;;;;;;5003975;28;20034;-83
2020/12/24 06:17:24;;;;;;;0.10;0.00;;;4.30;99.90;;;;;;5006700;28;20030;-83
2020/12/24 06:19:50;;;;;;;0.10;0.00;;;4.40;99.90;;;;;;5023259;28;20445;-83
2020/12/24 06:22:18;;;;;;;0.03;0.00;;;4.30;99.90;;;;;;5006478;28;20112;-84
2020/12/24 06:24:50;;;;;;;0.20;0.00;;;4.30;99.90;;;;;;5022979;28;20084;-84
2020/12/24 06:27:25;;;;;;;0.30;0.00;;;4.20;99.90;;;;;;4990833;28;20454;-84
2020/12/24 06:30:01;;;;;;;0.08;0.00;;;4.20;99.90;;;;;;5020384;28;20068;-84
2020/12/24 06:32:28;;;;;;;0.20;0.08;;;4.20;99.90;;;;;;5006614;28;20026;-84
2020/12/24 06:34:54;;;;;;;0.40;0.00;;;4.20;99.90;;;;;;5023123;28;20037;-83
2020/12/24 06:37:20;;;;;;;0.00;0.00;;;4.20;99.90;;;;;;5008954;28;20068;-84
2020/12/24 06:39:47;;;;;;;0.10;0.00;;;4.20;99.90;;;;;;5010456;28;20030;-83
2020/12/24 06:42:44;;;;;;;0.22;0.00;;;4.20;99.90;;;;;;5026997;28;20030;-84
2020/12/24 06:45:11;;;;;;;0.30;0.10;;;4.20;99.90;;;;;;5051439;28;20131;-84
2020/12/24 06:47:38;;;;;;;1.35;0.08;;;4.10;99.90;;;;;;5053464;28;20031;-84
2020/12/24 06:50:39;;;;;;;0.65;0.00;;;4.20;99.90;;;;;;5053860;28;20109;-84
2020/12/24 06:53:17;;;;;;;0.55;0.00;;;4.20;99.90;;;;;;5051934;28;20059;-84
2020/12/24 06:55:43;;;;;;;0.15;0.00;;;4.20;99.90;;;;;;5084942;28;20035;-84
2020/12/24 06:58:46;;;;;;;0.85;0.10;;;4.10;99.90;;;;;;5053293;28;20052;-84
2020/12/24 07:01:23;;;;;;;0.35;0.10;;;4.10;99.90;;;;;;5049518;28;20535;-85
2020/12/24 07:03:50;;;;;;;0.45;0.10;;;4.10;99.90;;;;;;5070285;28;20036;-84
2020/12/24 07:06:41;;;;;;;0.32;0.10;;;4.10;99.90;;;;;;5055424;28;20061;-84
2020/12/24 07:09:19;;;;;;;0.70;0.10;;;4.10;99.90;;;;;;5075586;28;20071;-84
2020/12/24 07:11:50;;;;;;;0.47;0.10;;;4.10;99.90;;;;;;5075289;28;20032;-84
2020/12/24 07:14:30;;;;;;;0.30;0.10;;;4.10;99.90;;;;;;5060777;28;20029;-84
2020/12/24 07:17:14;;;;;;;1.13;0.10;;;4.10;99.90;;;;;;5085713;28;20048;-84
2020/12/24 07:19:45;;;;;;;0.40;0.10;;;4.20;99.90;;;;;;5085667;28;20033;-84
2020/12/24 07:22:16;;;;;;;0.70;0.10;;;4.20;99.90;;;;;;5080342;28;20079;-83
2020/12/24 07:24:57;;;;;;;0.60;0.10;;;4.20;99.90;;;;;;5076464;28;20041;-82
2020/12/24 07:27:23;;;;;;;0.43;0.13;;;4.20;99.90;;;;;;5079002;28;20039;-83
2020/12/24 07:29:48;;;;;;;0.60;0.10;;;4.20;99.90;;;;;;5061727;28;20037;-83
2020/12/24 07:32:15;;;;;;;1.08;0.10;;;4.30;99.90;;;;;;5067850;28;20029;-84
2020/12/24 07:34:40;;;;;;;1.08;0.20;;;4.20;99.90;;;;;;5061534;28;20029;-84
2020/12/24 07:37:08;;;;;;;0.38;0.15;;;4.30;99.90;;;;;;5061037;28;20121;-84
2020/12/24 07:39:34;;;;;;;0.50;0.10;;;4.30;99.90;;;;;;5077499;28;20048;-84
2020/12/24 07:42:00;;;;;;;0.40;0.13;;;4.30;99.90;;;;;;5060620;28;20059;-84
2020/12/24 07:44:25;;;;;;;0.85;0.20;;;4.20;99.90;;;;;;5058416;28;20071;-83
2020/12/24 07:46:59;;;;;;;0.65;0.20;;;4.20;99.90;;;;;;5061121;28;20021;-83
2020/12/24 07:49:25;;;;;;;1.08;0.20;;;4.20;99.90;;;;;;5057342;28;20143;-84
2020/12/24 07:51:58;;;;;;;1.98;0.20;;;4.10;99.90;;;;;;5057261;28;20500;-83
2020/12/24 07:54:25;;;;;;;0.45;0.20;;;4.10;99.90;;;;;;5060983;28;20042;-83
2020/12/24 07:56:52;;;;;;;0.40;0.13;;;4.10;99.90;;;;;;5069422;28;20025;-84
2020/12/24 07:59:22;;;;;;;0.50;0.20;;;4.10;99.90;;;;;;5056091;28;20024;-84
2020/12/24 08:01:48;;;;;;;0.55;0.10;;;4.10;99.90;;;;;;5039674;28;20040;-83
2020/12/24 08:07:30;;;;;;;0.60;0.10;;;4.20;99.90;;;;;;5044958;28;20084;-82
2020/12/24 08:10:09;;;;;;;1.90;0.30;;;4.10;99.90;;;;;;5011997;28;20029;-82
2020/12/24 08:12:35;;;;;;;0.57;0.20;;;4.10;99.90;;;;;;5020672;28;20025;-82
2020/12/24 08:15:13;;;;;;;0.60;0.20;;;4.10;99.90;;;;;;5022527;28;20067;-82
2020/12/24 08:18:10;;;;;;;0.75;0.20;;;4.10;99.90;;;;;;5044775;28;20051;-83
2020/12/24 08:20:44;;;;;;;0.63;0.17;;;4.10;99.90;;;;;;5006536;28;20041;-83
2020/12/24 08:23:23;;;;;;;0.88;0.22;;;4.10;99.90;;;;;;5026921;28;20048;-82
2020/12/24 08:25:55;;;;;;;0.80;0.20;;;4.10;99.90;;;;;;5025323;28;20037;-83
2020/12/24 08:28:22;;;;;;;0.60;0.10;;;4.20;99.90;;;;;;5027851;28;20110;-82
2020/12/24 08:30:49;;;;;;;0.60;0.20;;;4.20;99.90;;;;;;5027149;28;20096;-83
2020/12/24 08:33:16;;;;;;;0.40;0.20;;;4.20;99.90;;;;;;5042006;28;20440;-83
2020/12/24 08:35:42;;;;;;;1.13;0.20;;;4.20;99.90;;;;;;5043759;28;20084;-82
2020/12/24 08:38:15;;;;;;;1.30;0.20;;;4.20;99.90;;;;;;5007644;28;20021;-82
2020/12/24 08:40:42;;;;;;;2.03;0.30;;;4.20;99.90;;;;;;5028802;28;20048;-82
2020/12/24 08:43:10;;;;;;;0.90;0.30;;;4.20;99.90;;;;;;5027545;28;20032;-81
2020/12/24 08:45:47;;;;;;;2.75;0.30;;;4.20;99.90;;;;;;5043672;28;20033;-82
2020/12/24 08:48:33;;;;;;;1.30;0.30;;;4.30;99.90;;;;;;5023674;28;20029;-82
2020/12/24 08:50:59;;;;;;;0.80;0.20;;;4.30;99.90;;;;;;5025349;28;20025;-83
2020/12/24 08:53:28;;;;;;;0.70;0.30;;;4.30;99.90;;;;;;5024272;28;20497;-83
2020/12/24 08:55:57;;;;;;;0.93;0.30;;;4.30;99.90;;;;;;5011075;28;20454;-82
2020/12/24 08:58:22;;;;;;;1.17;0.30;;;4.30;99.90;;;;;;5007075;28;20134;-82
2020/12/24 09:00:48;;;;;;;1.33;0.30;;;4.40;99.90;;;;;;5013693;28;20092;-82
2020/12/24 09:03:27;;;;;;;0.73;0.20;;;4.40;99.90;;;;;;5043007;28;20041;-82
2020/12/24 09:05:53;;;;;;;1.30;0.45;;;4.40;99.90;;;;;;5025514;28;20421;-82
2020/12/24 09:08:38;;;;;;;0.93;0.40;;;4.40;99.90;;;;;;5026946;28;20036;-83
2020/12/24 09:11:04;;;;;;;1.30;0.40;;;4.40;99.90;;;;;;5011074;28;20033;-83
2020/12/24 09:13:30;;;;;;;1.08;0.40;;;4.40;99.90;;;;;;5025649;28;20088;-83
2020/12/24 09:15:55;;;;;;;1.95;0.55;;;4.40;99.90;;;;;;5026785;28;20037;-84
2020/12/24 09:18:21;;;;;;;1.08;0.40;;;4.40;99.90;;;;;;5009715;28;20473;-83
2020/12/24 09:20:46;;;;;;;2.50;0.40;;;4.40;99.90;;;;;;5012405;28;20056;-83
2020/12/24 09:23:14;;;;;;;1.30;0.50;;;4.40;99.90;;;;;;5009690;28;20053;-83
2020/12/24 09:25:43;;;;;;;1.40;0.43;;;4.40;99.90;;;;;;5010464;28;20080;-83
2020/12/24 09:28:24;;;;;;;3.23;0.47;;;4.40;99.90;;;;;;5042097;28;20025;-83
2020/12/24 09:30:52;;;;;;;1.58;0.40;;;4.40;99.90;;;;;;5009722;28;20029;-83
2020/12/24 09:33:17;;;;;;;1.80;0.52;;;4.50;99.90;;;;;;5024260;28;20055;-83
2020/12/24 09:35:43;;;;;;;1.92;0.50;;;4.50;99.90;;;;;;5009979;28;20104;-84
2020/12/24 09:38:09;;;;;;;1.20;0.35;;;4.60;99.90;;;;;;5007484;28;20030;-84
2020/12/24 09:40:36;;;;;;;0.90;0.40;;;4.60;99.90;;;;;;5011645;28;20051;-82
2020/12/24 09:43:01;;;;;;;2.13;0.32;;;4.60;99.90;;;;;;5024535;28;20036;-83
2020/12/24 09:45:28;;;;;;;2.22;0.45;;;4.60;99.90;;;;;;5025891;28;20033;-84
2020/12/24 09:47:54;;;;;;;2.03;0.47;;;4.60;99.90;;;;;;5023726;28;20044;-84
2020/12/24 09:50:20;;;;;;;1.42;0.52;;;4.60;99.90;;;;;;5038776;28;20025;-83
2020/12/24 09:52:46;;;;;;;1.30;0.45;;;4.60;99.90;;;;;;5026947;28;20162;-83
2020/12/24 09:55:11;;;;;;;1.20;0.45;;;4.60;99.90;;;;;;5026622;28;20025;-84
2020/12/24 09:57:37;;;;;;;1.60;0.40;;;4.60;99.90;;;;;;5010586;28;20536;-83
2020/12/24 10:00:10;;;;;;;0.90;0.30;;;4.60;99.90;;;;;;5012354;28;20127;-83
2020/12/24 10:02:36;;;;;;;1.58;0.30;;;4.70;99.90;;;;;;5002301;28;20429;-84
2020/12/24 10:05:03;;;;;;;1.85;0.30;;;4.70;99.90;;;;;;5008982;28;20037;-83
2020/12/24 10:07:29;;;;;;;2.65;0.40;;;4.70;99.90;;;;;;5025172;28;20060;-83
2020/12/24 10:09:55;;;;;;;0.75;0.30;;;4.70;99.90;;;;;;5009512;28;20022;-83
2020/12/24 10:12:22;;;;;;;1.23;0.30;;;4.80;99.90;;;;;;5031373;28;20021;-83
2020/12/24 10:14:48;;;;;;;3.95;0.50;;;4.80;99.90;;;;;;5029350;28;20029;-82
2020/12/24 10:17:14;;;;;;;1.92;0.40;;;4.80;99.90;;;;;;5031136;28;20121;-82
2020/12/24 10:19:43;;;;;;;2.42;0.40;;;4.80;99.90;;;;;;5029748;28;20375;-84
2020/12/24 10:22:13;;;;;;;2.25;0.50;;;4.90;99.90;;;;;;5033512;28;20108;-83
2020/12/24 10:24:40;;;;;;;;;;;4.90;99.90;;;;;;5016310;28;20111;-83
2020/12/24 10:27:06;;;;;;;0.90;0.30;;;4.90;99.90;;;;;;5046742;28;20316;-83
2020/12/24 10:29:32;;;;;;;2.47;0.40;;;5.00;99.90;;;;;;5027287;28;20473;-83
2020/12/24 10:31:58;;;;;;;1.48;0.40;;;5.00;99.90;;;;;;5013017;28;20053;-83
2020/12/24 10:34:23;;;;;;;1.00;0.30;;;5.00;99.90;;;;;;5012338;28;20025;-84
2020/12/24 10:36:49;;;;;;;1.10;0.40;;;5.00;99.90;;;;;;5015343;28;20084;-83
2020/12/24 10:39:15;;;;;;;1.08;0.32;;;5.00;99.90;;;;;;5045948;28;20079;-84
2020/12/24 10:41:41;;;;;;;1.67;0.30;;;5.00;99.90;;;;;;5048365;28;20053;-82
2020/12/24 10:44:07;;;;;;;4.07;0.40;;;5.10;99.90;;;;;;5029381;28;20052;-83
2020/12/24 10:46:34;;;;;;;4.50;0.43;;;5.10;99.90;;;;;;5015343;28;20026;-83
2020/12/24 10:49:00;;;;;;;3.55;0.40;;;5.00;99.90;;;;;;5029200;28;20055;-83
2020/12/24 10:51:26;;;;;;;4.30;0.40;;;5.10;99.90;;;;;;5029956;28;20032;-82
2020/12/24 10:53:52;;;;;;;2.22;0.50;;;5.10;99.90;;;;;;5029205;28;20080;-85
2020/12/24 10:56:18;;;;;;;2.88;0.50;;;5.10;99.90;;;;;;5030997;28;20093;-83
2020/12/24 10:58:45;;;;;;;3.85;0.47;;;5.10;99.90;;;;;;5028718;28;20033;-83
2020/12/24 11:01:14;;;;;;;3.58;0.50;;;5.10;99.90;;;;;;5021482;28;20060;-84
2020/12/24 11:03:41;;;;;;;8.82;0.88;;;5.20;99.90;;;;;;5028759;28;20360;-83
2020/12/24 11:06:08;;;;;;;4.25;0.43;;;5.20;99.90;;;;;;5049414;23;20053;-83
2020/12/24 11:08:34;;;;;;;5.68;0.68;;;5.20;99.90;;;;;;5041851;28;20052;-83
2020/12/24 11:11:00;;;;;;;7.55;0.70;;;5.30;99.90;;;;;;5039977;28;20042;-83
2020/12/24 11:13:26;;;;;;;7.78;0.82;;;5.30;99.90;;;;;;5020507;28;20033;-82
2020/12/24 11:15:52;;;;;;;5.72;0.95;;;5.30;99.90;;;;;;5041332;28;20043;-84
2020/12/24 11:18:18;;;;;;;15.18;1.23;;;5.30;99.90;;;;;;5032993;28;20032;-81
2020/12/24 11:20:44;;;;;;;10.35;1.25;;;5.30;99.90;;;;;;5023403;28;20034;-82
2020/12/24 11:23:09;;;;;;;4.25;0.55;;;5.30;99.90;;;;;;5058314;28;20029;-83
2020/12/24 11:25:35;;;;;;;6.10;0.63;;;5.40;99.90;;;;;;5016901;28;20101;-83
2020/12/24 11:28:01;;;;;;;5.05;0.55;;;5.40;99.90;;;;;;5041099;28;20135;-84
2020/12/24 11:30:28;;;;;;;10.32;0.70;;;5.50;99.90;;;;;;5018072;28;20026;-83
2020/12/24 11:32:56;;;;;;;7.45;0.90;;;5.40;99.90;;;;;;5064597;28;20047;-83
2020/12/24 11:35:22;;;;;;;5.22;0.60;;;5.50;99.90;;;;;;5053908;28;20036;-85
2020/12/24 11:37:48;;;;;;;5.55;0.85;;;5.50;99.90;;;;;;5021199;28;20033;-83
2020/12/24 11:40:14;;;;;;;9.82;1.00;;;5.50;99.90;;;;;;5017709;28;20021;-83
2020/12/24 11:42:40;;;;;;;7.38;1.13;;;5.60;99.90;;;;;;5020699;28;20033;-84
2020/12/24 11:45:06;;;;;;;3.97;0.75;;;5.60;99.90;;;;;;5037831;28;20116;-82
2020/12/24 11:47:34;;;;;;;12.32;1.30;;;5.70;99.90;;;;;;5015342;28;20470;-85
2020/12/24 11:50:03;;;;;;;7.72;1.27;;;5.60;99.90;;;;;;5039376;28;20037;-84
2020/12/24 11:52:28;;;;;;;10.02;1.52;;;5.60;99.90;;;;;;5020377;28;20051;-84
2020/12/24 11:54:54;;;;;;;7.80;0.88;;;5.60;99.90;;;;;;5017276;28;20048;-84
2020/12/24 11:57:21;;;;;;;10.45;0.90;;;5.60;99.90;;;;;;5018186;28;20030;-85
2020/12/24 11:59:46;;;;;;;8.30;0.60;;;5.70;99.90;;;;;;5017555;28;20033;-85
2020/12/24 12:02:12;;;;;;;9.95;0.70;;;5.70;99.90;;;;;;5008843;28;20112;-85
2020/12/24 12:04:37;;;;;;;9.48;0.70;;;5.70;99.90;;;;;;5020223;28;20084;-84
2020/12/24 12:07:03;;;;;;;7.78;0.75;;;5.70;99.90;;;;;;5033812;28;20057;-86
2020/12/24 12:09:29;;;;;;;8.50;0.90;;;5.70;99.90;;;;;;5047631;28;20031;-85
2020/12/24 12:11:54;;;;;;;11.10;0.70;;;5.70;99.90;;;;;;5046434;28;20032;-85
2020/12/24 12:14:20;;;;;;;6.25;0.63;;;5.80;99.90;;;;;;5030972;28;20029;-85
2020/12/24 12:16:47;;;;;;;8.63;0.60;;;5.80;99.90;;;;;;5039636;28;20032;-84
2020/12/24 12:19:12;;;;;;;6.72;0.43;;;5.80;99.90;;;;;;5038134;28;20029;-85
2020/12/24 12:21:38;;;;;;;7.88;0.68;;;5.90;99.90;;;;;;5049944;28;20089;-84
2020/12/24 12:24:04;;;;;;;4.25;0.40;;;6.00;99.90;;;;;;5068693;28;20043;-85
2020/12/24 12:26:30;;;;;;;8.48;0.60;;;6.00;99.90;;;;;;5033461;28;20025;-85
2020/12/24 12:28:56;;;;;;;6.75;0.50;;;6.00;99.90;;;;;;5034646;28;20091;-85
2020/12/24 12:31:26;;;;;;;6.95;0.60;;;6.10;99.90;;;;;;5032469;28;20026;-85
2020/12/24 12:33:53;;;;;;;7.85;0.88;;;6.10;99.90;;;;;;5030333;28;20037;-85
2020/12/24 12:36:22;;;;;;;7.50;0.73;;;6.10;99.90;;;;;;5035164;28;20029;-85
2020/12/24 12:38:48;;;;;;;6.65;0.65;;;6.10;99.90;;;;;;5039336;28;20063;-85
2020/12/24 12:41:15;;;;;;;4.78;0.63;;;6.10;99.90;;;;;;5053093;28;20094;-84
2020/12/24 12:43:42;;;;;;;9.27;0.60;;;6.10;99.90;;;;;;5038316;28;20044;-84
2020/12/24 12:46:08;;;;;;;5.60;0.40;;;6.10;99.90;;;;;;5031468;28;20090;-86
2020/12/24 12:48:35;;;;;;;7.28;0.63;;;6.10;99.90;;;;;;5053566;28;20060;-85
2020/12/24 12:51:01;;;;;;;7.10;0.88;;;6.10;99.90;;;;;;5046759;28;20057;-84
2020/12/24 12:53:27;;;;;;;5.15;0.40;;;6.10;99.90;;;;;;5065199;28;20039;-86
2020/12/24 12:55:52;;;;;;;7.50;0.40;;;6.20;99.90;;;;;;5051923;28;20037;-85
2020/12/24 12:58:18;;;;;;;6.40;0.63;;;6.20;99.90;;;;;;5051267;28;20056;-86
2020/12/24 13:00:44;;;;;;;4.40;0.30;;;6.10;99.90;;;;;;5021198;28;20033;-85
2020/12/24 13:03:09;;;;;;;3.58;0.30;;;6.10;99.90;;;;;;5026378;28;20030;-85
2020/12/24 13:05:35;;;;;;;4.43;0.30;;;6.10;99.90;;;;;;5058479;22;20049;-84